createdAt,value
2023-11-24T00:00:05.615Z,5.30
2023-11-24T00:02:41.422Z,5.30
2023-11-24T00:05:09.627Z,5.30
2023-11-24T00:07:41.695Z,5.30
2023-11-24T00:10:10.745Z,5.30
2023-11-24T00:12:38.247Z,5.20
2023-11-24T00:15:07.410Z,5.20
2023-11-24T00:17:37.865Z,5.10
2023-11-24T00:20:09.436Z,5.00
2023-11-24T00:22:36.683Z,5.20
2023-11-24T00:25:05.256Z,5.20
2023-11-24T00:27:34.731Z,5.00
2023-11-24T00:30:03.034Z,4.90
2023-11-24T00:32:40.065Z,4.80
2023-11-24T00:35:08.279Z,4.90
2023-11-24T00:37:37.191Z,5.00
2023-11-24T00:40:09.312Z,5.00
2023-11-24T00:42:38.992Z,5.10
2023-11-24T00:45:08.830Z,5.10
2023-11-24T00:47:36.188Z,5.10
2023-11-24T00:50:05.861Z,5.00
2023-11-24T00:52:33.985Z,5.00
2023-11-24T00:55:02.724Z,5.10
2023-11-24T00:57:33.213Z,5.00
2023-11-24T01:00:05.814Z,5.10
2023-11-24T01:02:34.842Z,5.10
2023-11-24T01:05:06.140Z,5.10
2023-11-24T01:07:38.806Z,5.10
2023-11-24T01:10:09.531Z,5.00
2023-11-24T01:12:37.057Z,5.00
2023-11-24T01:15:06.398Z,5.00
2023-11-24T01:17:34.427Z,5.00
2023-11-24T01:20:03.153Z,5.10
2023-11-24T01:22:32.628Z,5.00
2023-11-24T01:25:01.124Z,5.00
2023-11-24T01:27:31.470Z,4.80
2023-11-24T01:29:59.381Z,4.60
2023-11-24T01:32:28.808Z,4.50
2023-11-24T01:34:56.426Z,4.60
2023-11-24T01:37:26.170Z,4.50
2023-11-24T01:39:54.892Z,4.40
2023-11-24T01:42:22.765Z,4.50
2023-11-24T01:44:50.274Z,4.40
2023-11-24T01:47:19.614Z,4.50
2023-11-24T01:49:47.314Z,4.50
2023-11-24T01:52:15.830Z,4.50
2023-11-24T01:54:43.966Z,4.60
2023-11-24T01:59:59.581Z,4.60
2023-11-24T02:02:31.094Z,4.70
2023-11-24T02:05:03.260Z,4.70
2023-11-24T02:07:38.857Z,4.70
2023-11-24T02:10:16.086Z,4.70
2023-11-24T02:12:56.367Z,4.80
2023-11-24T02:15:32.176Z,4.80
2023-11-24T02:18:01.838Z,4.80
2023-11-24T02:20:36.052Z,4.70
2023-11-24T02:23:06.411Z,4.60
2023-11-24T02:25:37.424Z,4.70
2023-11-24T02:28:06.518Z,4.70
2023-11-24T02:30:40.583Z,4.70
2023-11-24T02:33:14.120Z,4.80
2023-11-24T02:35:49.886Z,4.80
2023-11-24T02:38:21.910Z,4.70
2023-11-24T02:40:53.147Z,4.80
2023-11-24T02:43:24.642Z,4.80
2023-11-24T02:46:05.334Z,4.80
2023-11-24T02:48:45.825Z,4.80
2023-11-24T02:51:24.535Z,4.80
2023-11-24T02:53:54.585Z,4.90
2023-11-24T02:56:22.483Z,5.00
2023-11-24T02:58:57.423Z,5.00
2023-11-24T03:01:35.928Z,5.10
2023-11-24T03:04:05.664Z,5.10
2023-11-24T03:09:27.130Z,4.80
2023-11-24T03:11:59.206Z,4.80
2023-11-24T03:14:28.689Z,4.80
2023-11-24T03:16:59.771Z,4.90
2023-11-24T03:19:29.813Z,4.90
2023-11-24T03:22:00.307Z,4.90
2023-11-24T03:24:29.741Z,4.90
2023-11-24T03:26:59.046Z,4.80
2023-11-24T03:29:27.527Z,4.80
2023-11-24T03:32:00.388Z,4.80
2023-11-24T03:34:30.826Z,4.80
2023-11-24T03:37:01.284Z,4.80
2023-11-24T03:39:30.979Z,4.80
2023-11-24T03:42:01.525Z,4.90
2023-11-24T03:44:29.717Z,5.00
2023-11-24T03:47:01.149Z,5.00
2023-11-24T03:49:29.559Z,5.00
2023-11-24T03:51:59.555Z,5.00
2023-11-24T03:54:31.451Z,5.10
2023-11-24T03:57:17.427Z,5.10
2023-11-24T03:59:51.995Z,5.10
2023-11-24T04:02:31.419Z,5.10
2023-11-24T04:04:58.688Z,5.20
2023-11-24T04:07:28.207Z,5.20
2023-11-24T04:10:05.609Z,5.10
2023-11-24T04:12:33.862Z,5.10
2023-11-24T04:15:06.674Z,5.10
2023-11-24T04:17:40.148Z,5.20
2023-11-24T04:22:56.616Z,5.20
2023-11-24T04:25:26.741Z,5.20
2023-11-24T04:27:56.486Z,5.10
2023-11-24T04:30:28.505Z,5.10
2023-11-24T04:32:58.648Z,5.00
2023-11-24T04:35:28.831Z,5.00
2023-11-24T04:38:00.414Z,4.90
2023-11-24T04:40:29.124Z,4.90
2023-11-24T04:42:58.861Z,4.90
2023-11-24T04:45:30.868Z,4.90
2023-11-24T04:48:05.942Z,5.00
2023-11-24T04:50:34.212Z,4.90
2023-11-24T04:53:02.969Z,4.80
2023-11-24T04:58:19.099Z,4.60
2023-11-24T05:00:52.741Z,4.50
2023-11-24T05:03:23.311Z,4.50
2023-11-24T05:05:56.618Z,4.50
2023-11-24T05:08:34.554Z,4.50
2023-11-24T05:11:12.529Z,4.50
2023-11-24T05:13:44.527Z,4.60
2023-11-24T05:16:20.496Z,4.60
2023-11-24T05:18:56.124Z,4.60
2023-11-24T05:21:27.779Z,4.60
2023-11-24T05:23:57.814Z,4.60
2023-11-24T05:26:28.600Z,4.70
2023-11-24T05:28:59.794Z,4.70
2023-11-24T05:31:31.424Z,4.70
2023-11-24T05:34:01.530Z,4.70
2023-11-24T05:36:31.916Z,4.70
2023-11-24T05:39:01.622Z,4.70
2023-11-24T05:41:37.519Z,4.70
2023-11-24T05:44:07.220Z,4.60
2023-11-24T05:46:35.783Z,4.70
2023-11-24T05:49:05.721Z,4.80
2023-11-24T05:51:34.378Z,4.80
2023-11-24T05:54:07.888Z,4.80
2023-11-24T05:56:38.585Z,4.80
2023-11-24T05:59:08.768Z,4.90
2023-11-24T06:01:40.171Z,4.90
2023-11-24T06:04:11.248Z,4.90
2023-11-24T06:06:40.548Z,5.00
2023-11-24T06:09:11.132Z,5.00
2023-11-24T06:11:38.858Z,5.00
2023-11-24T06:14:06.299Z,5.10
2023-11-24T06:16:33.777Z,5.10
2023-11-24T06:19:02.531Z,5.10
2023-11-24T06:21:31.242Z,5.10
2023-11-24T06:23:59.479Z,5.20
2023-11-24T06:29:12.386Z,5.30
2023-11-24T06:31:43.427Z,5.40
2023-11-24T06:34:13.083Z,5.50
2023-11-24T06:36:47.065Z,5.60
2023-11-24T06:39:22.063Z,5.70
2023-11-24T06:41:51.469Z,5.60
2023-11-24T06:44:20.548Z,5.70
2023-11-24T06:46:50.444Z,5.90
2023-11-24T06:49:21.489Z,5.90
2023-11-24T06:51:53.814Z,6.00
2023-11-24T06:54:23.436Z,6.10
2023-11-24T06:57:02.978Z,6.00
2023-11-24T06:59:32.317Z,6.10
2023-11-24T07:02:03.844Z,6.20
2023-11-24T07:04:34.742Z,6.20
2023-11-24T07:07:10.497Z,6.20
2023-11-24T07:09:45.004Z,6.20
2023-11-24T07:12:19.382Z,6.30
2023-11-24T07:14:51.721Z,6.20
2023-11-24T07:17:22.918Z,6.20
2023-11-24T07:20:00.908Z,6.30
2023-11-24T07:22:31.876Z,6.40
2023-11-24T07:25:00.723Z,6.40
2023-11-24T07:27:32.745Z,6.50
2023-11-24T07:30:00.462Z,6.50
2023-11-24T07:32:31.436Z,6.60
2023-11-24T07:35:08.618Z,6.50
2023-11-24T07:37:47.280Z,6.50
2023-11-24T07:40:17.942Z,6.50
2023-11-24T07:42:48.217Z,6.50
2023-11-24T07:45:17.021Z,6.50
2023-11-24T07:47:49.080Z,6.50
2023-11-24T07:50:19.868Z,6.60
2023-11-24T07:52:51.967Z,6.60
2023-11-24T07:55:20.403Z,6.60
2023-11-24T07:57:49.878Z,6.70
2023-11-24T08:00:19.176Z,6.80
2023-11-24T08:02:56.003Z,6.90
2023-11-24T08:05:32.119Z,6.90
2023-11-24T08:08:08.821Z,6.90
2023-11-24T08:10:44.514Z,6.90
2023-11-24T08:13:17.334Z,6.80
2023-11-24T08:15:47.171Z,6.90
2023-11-24T08:18:23.091Z,6.90
2023-11-24T08:21:11.107Z,6.80
2023-11-24T08:23:40.224Z,6.90
2023-11-24T08:26:23.685Z,7.10
2023-11-24T08:28:56.059Z,7.20
2023-11-24T08:31:45.680Z,7.40
2023-11-24T08:34:17.339Z,7.60
2023-11-24T08:36:47.879Z,7.90
2023-11-24T08:39:38.788Z,8.00
2023-11-24T08:45:15.204Z,8.00
2023-11-24T08:48:18.485Z,8.00
2023-11-24T08:50:49.190Z,8.00
2023-11-24T08:53:26.927Z,8.00
2023-11-24T08:55:59.175Z,8.00
2023-11-24T08:58:31.622Z,8.00
2023-11-24T09:01:01.941Z,8.00
2023-11-24T09:03:35.332Z,8.00
2023-11-24T09:09:26.226Z,8.00
2023-11-24T09:12:02.452Z,8.00
2023-11-24T09:14:46.176Z,8.00
2023-11-24T09:17:24.584Z,8.00
2023-11-24T09:20:07.433Z,8.00
2023-11-24T09:22:36.764Z,8.00
2023-11-24T09:25:10.570Z,8.20
2023-11-24T09:27:48.787Z,8.10
2023-11-24T09:30:18.266Z,8.10
2023-11-24T09:32:54.964Z,8.10
2023-11-24T09:35:28.870Z,8.10
2023-11-24T09:38:01.070Z,8.10
2023-11-24T09:40:32.285Z,8.10
2023-11-24T09:43:05.737Z,8.10
2023-11-24T09:45:34.351Z,8.20
2023-11-24T09:48:05.363Z,8.30
2023-11-24T09:50:37.779Z,8.40
2023-11-24T09:53:07.825Z,8.60
2023-11-24T09:55:36.388Z,8.70
2023-11-24T09:58:05.538Z,8.70
2023-11-24T10:00:35.214Z,8.70
2023-11-24T10:03:08.730Z,8.70
2023-11-24T10:05:37.352Z,8.70
2023-11-24T10:08:04.905Z,8.80
2023-11-24T10:10:32.312Z,8.80
2023-11-24T10:13:04.406Z,8.70
2023-11-24T10:15:33.582Z,8.70
2023-11-24T10:18:01.128Z,8.70
2023-11-24T10:20:31.681Z,8.80
2023-11-24T10:23:01.976Z,8.70
2023-11-24T10:25:35.543Z,8.80
2023-11-24T10:28:08.478Z,8.80
2023-11-24T10:30:39.772Z,8.80
2023-11-24T10:33:07.458Z,8.80
2023-11-24T10:35:34.792Z,8.80
2023-11-24T10:38:03.674Z,8.80
2023-11-24T10:40:33.098Z,8.80
2023-11-24T10:43:19.583Z,8.80
2023-11-24T10:45:52.725Z,8.80
2023-11-24T10:48:47.430Z,8.80
2023-11-24T10:51:31.162Z,8.80
2023-11-24T10:54:05.057Z,8.80
2023-11-24T10:56:36.773Z,8.80
2023-11-24T10:59:07.148Z,8.90
2023-11-24T11:01:35.093Z,8.90
2023-11-24T11:04:03.424Z,8.90
2023-11-24T11:07:03.252Z,8.90
2023-11-24T11:09:44.310Z,9.00
2023-11-24T11:12:32.183Z,8.90
2023-11-24T11:15:00.963Z,8.90
2023-11-24T11:17:33.059Z,8.90
2023-11-24T11:20:17.554Z,8.80
2023-11-24T11:22:48.661Z,8.70
2023-11-24T11:27:57.076Z,8.80
2023-11-24T11:30:28.217Z,8.80
2023-11-24T11:33:11.606Z,8.90
2023-11-24T11:35:42.947Z,8.90
2023-11-24T11:38:15.079Z,9.00
2023-11-24T11:40:52.818Z,9.00
2023-11-24T11:43:20.825Z,8.90
2023-11-24T11:45:53.184Z,8.90
2023-11-24T11:48:24.066Z,8.90
2023-11-24T11:51:01.289Z,8.90
2023-11-24T11:53:32.933Z,8.80
2023-11-24T11:56:15.343Z,8.90
2023-11-24T11:58:42.885Z,8.90
2023-11-24T12:01:10.480Z,9.00
2023-11-24T12:03:40.219Z,9.00
2023-11-24T12:06:08.916Z,9.00
2023-11-24T12:08:40.347Z,9.00
2023-11-24T12:11:08.985Z,8.90
2023-11-24T12:13:40.636Z,9.00
2023-11-24T12:16:09.714Z,8.90
2023-11-24T12:18:37.605Z,9.00
2023-11-24T12:21:05.559Z,9.00
2023-11-24T12:23:33.212Z,9.10
2023-11-24T12:26:01.324Z,9.20
2023-11-24T12:28:28.865Z,9.10
2023-11-24T12:30:59.378Z,9.00
2023-11-24T12:33:26.696Z,8.90
2023-11-24T12:35:58.911Z,8.90
2023-11-24T12:38:29.442Z,8.80
2023-11-24T12:40:58.545Z,8.80
2023-11-24T12:43:26.758Z,8.90
2023-11-24T12:45:54.140Z,8.90
2023-11-24T12:48:26.098Z,8.90
2023-11-24T12:51:00.076Z,8.90
2023-11-24T12:53:28.683Z,8.90
2023-11-24T12:55:56.948Z,8.90
2023-11-24T12:58:24.977Z,8.90
2023-11-24T13:00:55.582Z,9.00
2023-11-24T13:03:24.432Z,9.00
2023-11-24T13:05:59.166Z,9.00
2023-11-24T13:08:31.424Z,9.00
2023-11-24T13:11:03.167Z,9.00
2023-11-24T13:13:31.033Z,9.10
2023-11-24T13:15:58.790Z,9.20
2023-11-24T13:18:27.087Z,9.20
2023-11-24T13:20:54.676Z,9.20
2023-11-24T13:23:22.052Z,9.10
2023-11-24T13:25:50.752Z,9.10
2023-11-24T13:28:18.939Z,9.20
2023-11-24T13:30:46.512Z,9.10
2023-11-24T13:33:17.600Z,9.00
2023-11-24T13:35:49.728Z,9.00
2023-11-24T13:38:21.179Z,8.90
2023-11-24T13:40:49.914Z,8.90
2023-11-24T13:43:17.400Z,8.80
2023-11-24T13:45:45.284Z,8.80
2023-11-24T13:48:13.814Z,8.70
2023-11-24T13:50:41.131Z,8.60
2023-11-24T13:53:08.584Z,8.70
2023-11-24T13:55:45.184Z,8.70
2023-11-24T13:58:13.634Z,8.60
2023-11-24T14:00:40.832Z,8.60
2023-11-24T14:03:08.463Z,8.60
2023-11-24T14:05:35.661Z,8.60
2023-11-24T14:08:04.515Z,8.60
2023-11-24T14:10:31.809Z,8.60
2023-11-24T14:12:59.596Z,8.60
2023-11-24T14:15:28.696Z,8.60
2023-11-24T14:17:57.748Z,8.60
2023-11-24T14:20:26.814Z,8.60
2023-11-24T14:22:54.389Z,8.60
2023-11-24T14:25:25.944Z,8.60
2023-11-24T14:27:55.185Z,8.50
2023-11-24T14:30:22.448Z,8.60
2023-11-24T14:32:49.825Z,8.60
2023-11-24T14:35:17.408Z,8.60
2023-11-24T14:37:45.418Z,8.60
2023-11-24T14:40:20.103Z,8.60
2023-11-24T14:42:51.361Z,8.50
2023-11-24T14:45:19.641Z,8.50
2023-11-24T14:47:50.876Z,8.40
2023-11-24T14:50:26.527Z,8.40
2023-11-24T14:52:59.101Z,8.50
2023-11-24T14:55:30.628Z,8.60
2023-11-24T14:57:58.471Z,8.60
2023-11-24T15:00:35.109Z,8.50
2023-11-24T15:03:09.685Z,8.50
2023-11-24T15:05:43.038Z,8.50
2023-11-24T15:08:16.079Z,8.50
2023-11-24T15:10:46.667Z,8.50
2023-11-24T15:13:22.968Z,8.50
2023-11-24T15:15:51.106Z,8.40
2023-11-24T15:18:21.946Z,8.40
2023-11-24T15:20:54.968Z,8.40
2023-11-24T15:23:28.862Z,8.40
2023-11-24T15:25:57.077Z,8.30
2023-11-24T15:28:27.407Z,8.30
2023-11-24T15:30:55.882Z,8.30
2023-11-24T15:33:24.489Z,8.30
2023-11-24T15:38:40.724Z,8.30
2023-11-24T15:41:11.216Z,8.30
2023-11-24T15:43:38.733Z,8.30
2023-11-24T15:46:09.670Z,8.30
2023-11-24T15:48:39.322Z,8.40
2023-11-24T15:51:06.802Z,8.40
2023-11-24T15:53:34.113Z,8.50
2023-11-24T15:56:02.211Z,8.50
2023-11-24T15:58:30.101Z,8.50
2023-11-24T16:00:58.829Z,8.50
2023-11-24T16:03:28.396Z,8.50
2023-11-24T16:06:01.305Z,8.40
2023-11-24T16:08:34.566Z,8.50
2023-11-24T16:11:11.900Z,8.50
2023-11-24T16:13:42.832Z,8.40
2023-11-24T16:16:10.659Z,8.40
2023-11-24T16:18:43.057Z,8.40
2023-11-24T16:21:11.662Z,8.40
2023-11-24T16:23:39.794Z,8.40
2023-11-24T16:26:08.393Z,8.40
2023-11-24T16:28:38.762Z,8.40
2023-11-24T16:31:07.291Z,8.40
2023-11-24T16:33:36.925Z,8.30
2023-11-24T16:56:09.928Z,8.40
2023-11-24T16:58:38.339Z,8.20
2023-11-24T17:01:07.903Z,8.20
2023-11-24T17:03:39.270Z,8.20
2023-11-24T17:06:12.047Z,8.30
2023-11-24T17:08:42.079Z,8.20
2023-11-24T17:11:14.321Z,8.20
2023-11-24T17:13:45.524Z,8.20
2023-11-24T17:16:15.966Z,8.30
2023-11-24T17:18:44.702Z,8.30
2023-11-24T17:21:13.701Z,8.30
2023-11-24T17:23:42.506Z,8.40
2023-11-24T17:26:14.584Z,8.30
2023-11-24T17:28:47.803Z,8.30
2023-11-24T17:31:16.072Z,8.30
2023-11-24T17:33:44.669Z,8.30
2023-11-24T17:36:12.765Z,8.20
2023-11-24T17:38:43.076Z,8.20
2023-11-24T17:41:20.800Z,8.20
2023-11-24T17:43:55.746Z,8.10
2023-11-24T17:46:24.327Z,8.00
2023-11-24T17:48:53.586Z,8.10
2023-11-24T17:51:26.793Z,8.10
2023-11-24T17:53:57.301Z,8.10
2023-11-24T17:56:25.134Z,8.20
2023-11-24T17:58:53.209Z,8.20
2023-11-24T18:01:22.142Z,8.20
2023-11-24T18:03:49.735Z,8.10
2023-11-24T18:06:33.380Z,8.20
2023-11-24T18:09:03.823Z,8.10
2023-11-24T18:11:34.723Z,8.10
2023-11-24T18:14:04.730Z,8.10
2023-11-24T18:16:33.195Z,8.20
2023-11-24T18:19:02.516Z,8.20
2023-11-24T18:21:30.517Z,8.20
2023-11-24T18:23:58.348Z,8.20
2023-11-24T18:26:29.302Z,8.20
2023-11-24T18:28:56.700Z,8.20
2023-11-24T18:31:24.673Z,8.20
2023-11-24T18:33:52.020Z,8.20
2023-11-24T18:36:19.604Z,8.20
2023-11-24T18:38:48.917Z,8.20
2023-11-24T18:41:20.041Z,8.10
2023-11-24T18:43:48.173Z,8.10
2023-11-24T18:46:20.063Z,8.10
2023-11-24T18:48:56.565Z,8.10
2023-11-24T18:51:24.451Z,8.00
2023-11-24T18:53:53.107Z,8.10
2023-11-24T18:56:26.748Z,8.10
2023-11-24T18:58:54.604Z,8.10
2023-11-24T19:01:22.004Z,8.20
2023-11-24T19:03:51.846Z,8.20
2023-11-24T19:06:19.395Z,8.20
2023-11-24T19:08:47.628Z,8.10
2023-11-24T19:11:21.866Z,8.00
2023-11-24T19:13:50.743Z,8.00
2023-11-24T19:16:18.322Z,7.90
2023-11-24T19:18:46.105Z,7.80
2023-11-24T19:21:14.763Z,7.80
2023-11-24T19:23:42.685Z,7.80
2023-11-24T19:26:13.409Z,7.70
2023-11-24T19:28:58.991Z,7.80
2023-11-24T19:31:33.562Z,7.80
2023-11-24T19:34:03.365Z,7.80
2023-11-24T19:36:31.045Z,7.80
2023-11-24T19:38:58.338Z,7.80
2023-11-24T19:41:25.623Z,7.90
2023-11-24T19:43:54.599Z,7.90
2023-11-24T19:46:25.387Z,7.90
2023-11-24T19:51:36.245Z,7.90
2023-11-24T19:54:06.030Z,7.90
2023-11-24T19:56:33.804Z,7.90
2023-11-24T19:59:05.543Z,7.90
2023-11-24T20:01:35.655Z,7.90
2023-11-24T20:04:04.562Z,7.90
2023-11-24T20:06:33.069Z,7.90
2023-11-24T20:09:07.408Z,7.90
2023-11-24T20:11:34.963Z,7.80
2023-11-24T20:14:04.740Z,7.90
2023-11-24T20:16:32.865Z,7.90
2023-11-24T20:19:02.749Z,7.90
2023-11-24T20:21:34.854Z,7.90
2023-11-24T20:24:03.011Z,7.90
2023-11-24T20:26:31.468Z,7.90
2023-11-24T20:29:02.258Z,7.80
2023-11-24T20:31:31.136Z,7.80
2023-11-24T20:33:59.710Z,7.80
2023-11-24T20:36:29.096Z,7.80
2023-11-24T20:39:00.506Z,7.80
2023-11-24T20:41:31.868Z,7.80
2023-11-24T20:43:59.882Z,7.80
2023-11-24T20:46:33.460Z,7.80
2023-11-24T20:49:04.748Z,7.80
2023-11-24T20:51:38.939Z,7.80
2023-11-24T20:54:10.313Z,7.80
2023-11-24T20:56:37.664Z,7.90
2023-11-24T20:59:12.338Z,7.90
2023-11-24T21:01:43.247Z,7.90
2023-11-24T21:04:13.956Z,7.90
2023-11-24T21:06:41.934Z,8.00
2023-11-24T21:09:12.396Z,8.00
2023-11-24T21:11:41.142Z,8.00
2023-11-24T21:14:09.740Z,8.00
2023-11-24T21:16:41.569Z,8.00
2023-11-24T21:19:15.791Z,8.00
2023-11-24T21:21:46.183Z,8.00
2023-11-24T21:24:17.735Z,7.90
2023-11-24T21:26:45.695Z,8.00
2023-11-24T21:29:13.082Z,8.00
2023-11-24T21:31:41.041Z,8.00
2023-11-24T21:34:10.216Z,7.90
2023-11-24T21:36:42.295Z,7.90
2023-11-24T21:39:13.212Z,7.80
2023-11-24T21:41:42.084Z,7.70
2023-11-24T21:44:09.825Z,7.60
2023-11-24T21:46:37.496Z,7.70
2023-11-24T21:49:06.358Z,7.60
2023-11-24T21:51:34.058Z,7.60
2023-11-24T21:54:05.020Z,7.50
2023-11-24T21:56:37.150Z,7.50
2023-11-24T21:59:05.513Z,7.50
2023-11-24T22:01:35.186Z,7.50
2023-11-24T22:04:05.581Z,7.50
2023-11-24T22:06:39.311Z,7.50
2023-11-24T22:09:09.276Z,7.60
2023-11-24T22:11:37.235Z,7.60
2023-11-24T22:14:09.785Z,7.50
2023-11-24T22:16:37.529Z,7.40
2023-11-24T22:19:07.702Z,7.40
2023-11-24T22:21:35.477Z,7.50
2023-11-24T22:24:09.809Z,7.60
2023-11-24T22:26:39.409Z,7.50
2023-11-24T22:29:07.132Z,7.50
2023-11-24T22:31:34.526Z,7.50
2023-11-24T22:34:03.190Z,7.50
2023-11-24T22:36:31.976Z,7.40
2023-11-24T22:38:59.214Z,7.30
2023-11-24T22:41:28.176Z,7.40
2023-11-24T22:43:56.686Z,7.40
2023-11-24T22:46:28.340Z,7.40
2023-11-24T22:48:58.649Z,7.40
2023-11-24T22:51:28.133Z,7.40
2023-11-24T22:53:58.691Z,7.30
2023-11-24T22:56:29.251Z,7.30
2023-11-24T22:58:59.727Z,7.40
2023-11-24T23:01:29.671Z,7.40
2023-11-24T23:03:59.101Z,7.50
2023-11-24T23:06:29.802Z,7.50
2023-11-24T23:09:00.554Z,7.40
2023-11-24T23:11:33.202Z,7.30
2023-11-24T23:14:04.845Z,7.30
2023-11-24T23:16:36.555Z,7.40
2023-11-24T23:19:07.943Z,7.30
2023-11-24T23:21:37.812Z,7.40
2023-11-24T23:24:05.844Z,7.20
2023-11-24T23:26:34.238Z,7.20
2023-11-24T23:29:04.881Z,7.20
2023-11-24T23:31:33.983Z,7.20
2023-11-24T23:34:07.195Z,7.20
2023-11-24T23:36:37.545Z,7.20
2023-11-24T23:39:05.706Z,7.20
2023-11-24T23:41:33.480Z,7.30
2023-11-24T23:44:01.798Z,7.30
2023-11-24T23:46:31.074Z,7.30
2023-11-24T23:49:02.538Z,7.40
2023-11-24T23:51:40.165Z,7.50
2023-11-24T23:54:08.748Z,7.50
2023-11-24T23:56:43.370Z,7.40
2023-11-24T23:59:13.950Z,7.20
